WetterOnline ( https://www.wetteronline.de )

Wetter aktuell Putbus

Aktuelles Wetter: Putbus/Rügen (41m)

6-stündlich | Neueste Meldungen
Ortszeit Temperatur Wetter
Di, 09.08. 8:00 17.5° C wolkenlos
Di, 09.08. 2:00 12.6° C wolkig
Mo, 08.08. 20:00 18.2° C leicht bewölkt
Mo, 08.08. 14:00 19.1° C bedeckt
Mo, 08.08. 8:00 17.6° C leicht bewölkt
Mo, 08.08. 2:00 14.2° C bewölkt
So, 07.08. 20:00 17.9° C wolkig
So, 07.08. 14:00 19.4° C bewölkt
Ortszeit Temperatur Wetter
Di, 09.08. 13:00 22.3° C bewölkt
Di, 09.08. 12:50 22.3° C bewölkt
Di, 09.08. 12:40 23.0° C bewölkt
Di, 09.08. 12:30 22.3° C bewölkt
Di, 09.08. 12:20 22.3° C bewölkt
Di, 09.08. 12:10 21.3° C wolkig
Di, 09.08. 12:00 21.7° C leicht bewölkt
Di, 09.08. 11:30 20.3° C leicht bewölkt
Di, 09.08. 11:00 20.9° C wolkig
Di, 09.08. 10:30 21.0° C wolkig
Di, 09.08. 10:00 20.6° C wolkenlos
Ortszeit Relative Feuchte Sichtweite
Di, 09.08. 8:00 83% 19 km
Di, 09.08. 2:00 94% 18 km
Mo, 08.08. 20:00 70% 35 km
Mo, 08.08. 14:00 65% 8 km
Mo, 08.08. 8:00 65% 50 km
Mo, 08.08. 2:00 82% 45 km
So, 07.08. 20:00 57% 65 km
So, 07.08. 14:00 52% >70 km
Ortszeit Relative Feuchte Sichtweite
Di, 09.08. 13:00 56% 35 km
Di, 09.08. 12:50 56% -
Di, 09.08. 12:40 55% -
Di, 09.08. 12:30 56% 30 km
Di, 09.08. 12:20 56% -
Di, 09.08. 12:10 55% -
Di, 09.08. 12:00 54% 21 km
Di, 09.08. 11:30 59% 30 km
Di, 09.08. 11:00 58% 40 km
Di, 09.08. 10:30 57% 30 km
Di, 09.08. 10:00 52% 35 km
Ortszeit Niederschlagsmenge Niederschlagsart
Di, 09.08. 8:00 0.0 l/m2 in 12 Std. -
Di, 09.08. 2:00 0.0 l/m2 in 6 Std. -
Mo, 08.08. 20:00 0.1 l/m2 in 12 Std. Sprühregen
Mo, 08.08. 14:00 0.1 l/m2 in 6 Std. Sprühregen
Mo, 08.08. 8:00 0.0 l/m2 in 12 Std. -
Mo, 08.08. 2:00 0.0 l/m2 in 6 Std. -
So, 07.08. 20:00 0.0 l/m2 in 12 Std. -
So, 07.08. 14:00 0.0 l/m2 in 6 Std. -
Ortszeit Niederschlagsmenge Niederschlagsart
Di, 09.08. 13:00 0.0 l/m2 in 1 Std. -
Di, 09.08. 12:50 keine Meldung -
Di, 09.08. 12:40 keine Meldung -
Di, 09.08. 12:30 0.0 l/m2 in 1 Std. -
Di, 09.08. 12:20 keine Meldung -
Di, 09.08. 12:10 keine Meldung -
Di, 09.08. 12:00 0.0 l/m2 in 1 Std. -
Di, 09.08. 11:30 0.0 l/m2 in 1 Std. -
Di, 09.08. 11:00 0.0 l/m2 in 1 Std. -
Di, 09.08. 10:30 0.0 l/m2 in 1 Std. -
Di, 09.08. 10:00 0.0 l/m2 in 1 Std. -
Ortszeit Stärke Spitze Richtung
km/h Bft. km/h Grad Sektor
Di, 09.08. 8:00 4 1 11 30° NO
Di, 09.08. 2:00 4 1 7 300° NW
Mo, 08.08. 20:00 4 1 18 140° SO
Mo, 08.08. 14:00 11 2 18 60° NO
Mo, 08.08. 8:00 9 2 13 290° W
Mo, 08.08. 2:00 4 1 7 220° SW
So, 07.08. 20:00 7 2 29 300° NW
So, 07.08. 14:00 7 2 25 130° SO
Ortszeit Stärke Spitze Richtung
km/h Bft. km/h Grad Sektor
Di, 09.08. 13:00 9 2 20 80° O
Di, 09.08. 12:50 9 2 - 80° O
Di, 09.08. 12:40 7 2 - 100° O
Di, 09.08. 12:30 11 2 22 90° O
Di, 09.08. 12:20 11 2 - 90° O
Di, 09.08. 12:10 7 2 - 120° SO
Di, 09.08. 12:00 7 2 14 180° S
Di, 09.08. 11:30 4 1 7 240° SW
Di, 09.08. 11:00 6 1 13 300° NW
Di, 09.08. 10:30 7 2 11 340° N
Di, 09.08. 10:00 6 1 11 60° NO
Ortszeit Untergrenze Bedeckung Gattung
total tief tief mittel hoch
Di, 09.08. 8:00 - 0/8 0/8 - - -
Di, 09.08. 2:00 2400 m 5/8 5/8 - - -
Mo, 08.08. 20:00 2400 m 2/8 2/8 - - -
Mo, 08.08. 14:00 1500 m 8/8 8/8 - - -
Mo, 08.08. 8:00 3900 m 4/8 4/8 - - -
Mo, 08.08. 2:00 1800 m 8/8 4/8 - - -
So, 07.08. 20:00 1800 m 8/8 2/8 - - -
So, 07.08. 14:00 1500 m 8/8 5/8 - - -
Ortszeit Bedeckungsgrad in Achtel und Wolkenuntergrenze
Di, 09.08. 13:00 7(1020m) 7(1350m) 7(1500m)
Di, 09.08. 12:50 7(1020m) 7(1350m) 7(1500m)
Di, 09.08. 12:40 7
Di, 09.08. 12:30 6(1050m) 7(1350m) 7(1500m)
Di, 09.08. 12:20 6(1050m) 7(1350m) 7(1500m)
Di, 09.08. 12:10 6
Di, 09.08. 12:00 3(1230m) 5(10500m)
Di, 09.08. 11:30 1(990m) 3(1200m)
Di, 09.08. 11:00 5(990m) 6(1170m)
Di, 09.08. 10:30 5(930m)
Di, 09.08. 10:00 keine Wolken
Ortszeit Luftdruck NN (hPa) Tendenz (hPa in 3 Std.)
Di, 09.08. 8:00 1028 + 0,6
Di, 09.08. 2:00 1028 + 0,3
Mo, 08.08. 20:00 1026 + 0,1
Mo, 08.08. 14:00 1026 + 0,4
Mo, 08.08. 8:00 1025 + 0,5
Mo, 08.08. 2:00 1025 + 0,3
So, 07.08. 20:00 1024 - 0,2
So, 07.08. 14:00 1025 - 1,2
Ortszeit Luftdruck NN (hPa) Tendenz (hPa in 3 Std.)
Di, 09.08. 13:00 1029 + 0,1
Di, 09.08. 12:50 1029 keine Meldung
Di, 09.08. 12:40 1029 keine Meldung
Di, 09.08. 12:30 1029 + 0,3
Di, 09.08. 12:20 1029 keine Meldung
Di, 09.08. 12:10 1029 keine Meldung
Di, 09.08. 12:00 1029 + 0,5
Di, 09.08. 11:30 1029 + 0,6
Di, 09.08. 11:00 1029 + 0,6
Di, 09.08. 10:30 1029 + 0,8
Di, 09.08. 10:00 1029 + 0,8
Ortszeit Schneehöhe (cm)
Di, 09.08. 8:00 0
Di, 09.08. 2:00 0
Mo, 08.08. 20:00 0
Mo, 08.08. 14:00 0
Mo, 08.08. 8:00 0
Mo, 08.08. 2:00 0
So, 07.08. 20:00 0
So, 07.08. 14:00 0
Ortszeit Schneehöhe (cm)
Di, 09.08. 13:00 0
Di, 09.08. 12:50 0
Di, 09.08. 12:40 0
Di, 09.08. 12:30 0
Di, 09.08. 12:20 0
Di, 09.08. 12:10 0
Di, 09.08. 12:00 0
Di, 09.08. 11:30 0
Di, 09.08. 11:00 0
Di, 09.08. 10:30 0
Di, 09.08. 10:00 0
Link zu dieser Seite / Seite empfehlen

Das Wetter in ...